createdAt,value
2023-04-27T00:02:08.046Z,65.13
2023-04-27T00:04:54.557Z,65.20
2023-04-27T00:07:41.298Z,65.26
2023-04-27T00:10:27.666Z,65.16
2023-04-27T00:13:13.396Z,65.31
2023-04-27T00:16:03.450Z,65.22
2023-04-27T00:18:49.279Z,65.10
2023-04-27T00:21:36.121Z,65.25
2023-04-27T00:24:21.883Z,65.31
2023-04-27T00:27:08.360Z,65.56
2023-04-27T00:29:54.464Z,65.53
2023-04-27T00:32:42.438Z,65.23
2023-04-27T00:35:28.439Z,65.51
2023-04-27T00:38:14.877Z,65.40
2023-04-27T00:41:04.045Z,65.58
2023-04-27T00:43:50.115Z,65.69
2023-04-27T00:46:36.790Z,65.77
2023-04-27T00:49:23.857Z,65.56
2023-04-27T00:52:09.942Z,65.53
2023-04-27T00:54:57.764Z,65.88
2023-04-27T00:57:43.861Z,65.66
2023-04-27T01:00:30.380Z,65.64
2023-04-27T01:03:17.128Z,65.94
2023-04-27T01:06:04.125Z,65.63
2023-04-27T01:08:50.327Z,65.69
2023-04-27T01:11:36.555Z,65.88
2023-04-27T01:14:22.655Z,65.92
2023-04-27T01:17:11.026Z,65.93
2023-04-27T01:19:57.906Z,65.92
2023-04-27T01:22:44.099Z,65.76
2023-04-27T01:25:29.842Z,65.84
2023-04-27T01:28:16.280Z,66.09
2023-04-27T01:31:01.956Z,66.12
2023-04-27T01:33:48.383Z,66.13
2023-04-27T01:36:34.436Z,66.39
2023-04-27T01:39:20.777Z,66.15
2023-04-27T01:42:07.087Z,66.34
2023-04-27T01:44:54.613Z,66.32
2023-04-27T01:47:41.624Z,66.29
2023-04-27T01:50:28.535Z,66.43
2023-04-27T01:53:14.626Z,66.51
2023-04-27T01:56:00.908Z,66.54
2023-04-27T01:58:47.116Z,66.40
2023-04-27T02:01:33.382Z,66.64
2023-04-27T02:04:19.766Z,66.73
2023-04-27T02:07:06.628Z,66.77
2023-04-27T02:09:54.407Z,66.75
2023-04-27T02:12:40.701Z,66.78
2023-04-27T02:15:27.285Z,66.79
2023-04-27T02:18:15.823Z,66.53
2023-04-27T02:21:01.912Z,66.79
2023-04-27T02:23:48.094Z,66.80
2023-04-27T02:26:33.953Z,66.97
2023-04-27T02:29:20.531Z,66.99
2023-04-27T02:32:07.139Z,67.01
2023-04-27T02:34:53.155Z,67.16
2023-04-27T02:37:38.762Z,67.08
2023-04-27T02:40:24.539Z,67.07
2023-04-27T02:43:10.741Z,67.05
2023-04-27T02:45:57.448Z,67.36
2023-04-27T02:48:43.492Z,67.43
2023-04-27T02:51:29.524Z,67.33
2023-04-27T02:54:15.281Z,67.57
2023-04-27T02:57:02.419Z,67.45
2023-04-27T02:59:48.626Z,67.50
2023-04-27T03:02:35.323Z,67.46
2023-04-27T03:05:21.431Z,67.39
2023-04-27T03:08:07.790Z,67.66
2023-04-27T03:10:54.763Z,67.78
2023-04-27T03:13:43.539Z,67.82
2023-04-27T03:16:32.226Z,67.68
2023-04-27T03:19:18.729Z,67.81
2023-04-27T03:22:04.266Z,67.94
2023-04-27T03:24:50.436Z,67.95
2023-04-27T03:27:36.779Z,68.09
2023-04-27T03:30:23.076Z,67.80
2023-04-27T03:33:09.299Z,68.23
2023-04-27T03:35:59.184Z,68.15
2023-04-27T03:38:44.866Z,68.24
2023-04-27T03:41:31.061Z,68.28
2023-04-27T03:44:17.131Z,68.26
2023-04-27T03:47:03.777Z,68.20
2023-04-27T03:49:50.192Z,68.29
2023-04-27T03:52:36.298Z,68.72
2023-04-27T03:55:23.559Z,68.21
2023-04-27T03:58:10.850Z,68.53
2023-04-27T04:01:03.875Z,68.59
2023-04-27T04:03:50.733Z,68.45
2023-04-27T04:06:37.432Z,68.56
2023-04-27T04:09:24.117Z,68.61
2023-04-27T04:12:10.178Z,68.69
2023-04-27T04:14:56.699Z,68.76
2023-04-27T04:17:42.633Z,68.58
2023-04-27T04:20:29.114Z,68.67
2023-04-27T04:23:14.701Z,68.74
2023-04-27T04:26:02.290Z,68.75
2023-04-27T04:28:52.533Z,68.67
2023-04-27T04:31:39.484Z,68.61
2023-04-27T04:34:25.431Z,68.83
2023-04-27T04:37:11.927Z,68.44
2023-04-27T04:39:58.100Z,68.40
2023-04-27T04:42:45.000Z,68.37
2023-04-27T04:45:31.224Z,68.30
2023-04-27T04:48:17.863Z,68.04
2023-04-27T04:51:08.424Z,67.99
2023-04-27T04:53:55.024Z,67.74
2023-04-27T04:56:42.651Z,68.05
2023-04-27T04:59:33.607Z,68.11
2023-04-27T05:02:19.510Z,67.45
2023-04-27T05:05:06.047Z,67.86
2023-04-27T05:07:51.998Z,67.51
2023-04-27T05:10:37.968Z,67.55
2023-04-27T05:13:24.947Z,67.18
2023-04-27T05:16:11.180Z,67.34
2023-04-27T05:18:57.128Z,66.84
2023-04-27T05:21:43.261Z,67.10
2023-04-27T05:24:28.900Z,66.76
2023-04-27T05:27:15.082Z,66.38
2023-04-27T05:30:01.099Z,66.39
2023-04-27T05:32:46.854Z,66.19
2023-04-27T05:35:33.460Z,66.48
2023-04-27T05:38:20.094Z,65.85
2023-04-27T05:41:06.202Z,66.15
2023-04-27T05:43:53.619Z,65.13
2023-04-27T05:46:39.930Z,65.34
2023-04-27T05:49:26.783Z,65.46
2023-04-27T05:52:12.635Z,65.05
2023-04-27T05:54:59.269Z,65.01
2023-04-27T05:57:47.673Z,64.98
2023-04-27T06:00:36.928Z,64.74
2023-04-27T06:03:22.878Z,64.73
2023-04-27T06:06:09.170Z,64.57
2023-04-27T06:08:55.022Z,64.54
2023-04-27T06:11:41.353Z,64.15
2023-04-27T06:14:27.715Z,64.44
2023-04-27T06:17:14.093Z,63.66
2023-04-27T06:19:59.773Z,63.63
2023-04-27T06:22:46.923Z,63.88
2023-04-27T06:25:32.718Z,63.72
2023-04-27T06:28:18.792Z,63.81
2023-04-27T06:31:05.057Z,64.04
2023-04-27T06:33:51.133Z,64.07
2023-04-27T06:36:37.072Z,64.01
2023-04-27T06:39:23.010Z,63.71
2023-04-27T06:42:08.799Z,63.69
2023-04-27T06:44:56.425Z,63.98
2023-04-27T06:47:42.516Z,63.72
2023-04-27T06:50:29.613Z,63.97
2023-04-27T06:53:17.948Z,63.74
2023-04-27T06:56:04.100Z,63.58
2023-04-27T06:58:50.351Z,63.45
2023-04-27T07:01:37.147Z,62.39
2023-04-27T07:04:23.748Z,62.28
2023-04-27T07:07:10.124Z,62.71
2023-04-27T07:09:56.241Z,62.58
2023-04-27T07:12:42.860Z,62.87
2023-04-27T07:15:28.973Z,62.94
2023-04-27T07:18:15.163Z,62.77
2023-04-27T07:21:02.059Z,62.42
2023-04-27T07:23:47.921Z,62.46
2023-04-27T07:26:33.505Z,62.17
2023-04-27T07:29:27.101Z,62.31
2023-04-27T07:32:13.588Z,61.84
2023-04-27T07:35:00.231Z,61.48
2023-04-27T07:37:45.983Z,61.31
2023-04-27T07:40:32.921Z,61.67
2023-04-27T07:43:19.423Z,61.87
2023-04-27T07:46:05.858Z,61.57
2023-04-27T07:48:52.442Z,61.10
2023-04-27T07:51:39.785Z,61.25
2023-04-27T07:54:26.376Z,60.65
2023-04-27T07:57:12.702Z,60.18
2023-04-27T07:59:58.786Z,59.88
2023-04-27T08:02:44.905Z,59.78
2023-04-27T08:05:31.464Z,59.15
2023-04-27T08:08:18.570Z,59.92
2023-04-27T08:11:04.529Z,59.48
2023-04-27T08:13:50.706Z,59.70
2023-04-27T08:16:37.131Z,59.88
2023-04-27T08:19:23.561Z,59.49
2023-04-27T08:22:09.587Z,59.43
2023-04-27T08:24:55.988Z,59.43
2023-04-27T08:27:42.093Z,59.73
2023-04-27T08:30:28.438Z,60.10
2023-04-27T08:33:14.592Z,59.22
2023-04-27T08:36:00.901Z,59.26
2023-04-27T08:38:46.563Z,59.50
2023-04-27T08:41:32.964Z,59.76
2023-04-27T08:44:19.182Z,60.14
2023-04-27T08:47:05.579Z,60.04
2023-04-27T08:49:51.592Z,59.37
2023-04-27T08:52:37.824Z,59.17
2023-04-27T08:55:24.311Z,59.54
2023-04-27T08:58:10.334Z,59.86
2023-04-27T09:00:56.593Z,59.44
2023-04-27T09:03:42.821Z,58.90
2023-04-27T09:06:33.703Z,59.19
2023-04-27T09:09:24.048Z,58.40
2023-04-27T09:12:20.556Z,58.39
2023-04-27T09:15:08.585Z,57.58
2023-04-27T09:17:56.662Z,57.96
2023-04-27T09:20:48.228Z,57.41
2023-04-27T09:23:36.474Z,57.45
2023-04-27T09:26:27.618Z,56.75
2023-04-27T09:29:13.837Z,56.87
2023-04-27T09:32:00.588Z,57.10
2023-04-27T09:34:46.539Z,56.75
2023-04-27T09:37:32.697Z,55.94
2023-04-27T09:40:23.802Z,55.76
2023-04-27T09:43:10.699Z,56.26
2023-04-27T09:45:57.365Z,55.10
2023-04-27T09:48:43.436Z,55.52
2023-04-27T09:51:29.656Z,55.35
2023-04-27T09:54:16.224Z,54.90
2023-04-27T09:57:41.095Z,54.65
2023-04-27T10:00:43.047Z,54.55
2023-04-27T10:03:47.647Z,54.59
2023-04-27T10:06:46.000Z,53.86
2023-04-27T10:09:42.683Z,53.84
2023-04-27T10:12:36.814Z,53.65
2023-04-27T10:15:27.357Z,52.63
2023-04-27T10:18:13.673Z,53.29
2023-04-27T10:21:12.458Z,54.04
2023-04-27T10:24:08.690Z,53.34
2023-04-27T10:27:01.602Z,52.33
2023-04-27T10:29:48.344Z,52.66
2023-04-27T10:32:34.681Z,53.43
2023-04-27T10:35:22.238Z,53.40
2023-04-27T10:38:18.122Z,53.37
2023-04-27T10:41:07.295Z,52.84
2023-04-27T10:43:53.119Z,53.16
2023-04-27T10:46:50.539Z,52.96
2023-04-27T10:49:36.149Z,53.37
2023-04-27T10:52:22.726Z,53.21
2023-04-27T10:55:20.360Z,54.21
2023-04-27T10:58:07.029Z,53.93
2023-04-27T11:00:53.261Z,53.63
2023-04-27T11:03:39.635Z,53.89
2023-04-27T11:06:25.984Z,53.63
2023-04-27T11:09:12.522Z,54.03
2023-04-27T11:11:58.395Z,54.05
2023-04-27T11:14:44.748Z,53.82
2023-04-27T11:17:32.306Z,53.94
2023-04-27T11:20:25.637Z,53.17
2023-04-27T11:23:11.741Z,53.88
2023-04-27T11:25:57.888Z,53.69
2023-04-27T11:28:46.262Z,54.15
2023-04-27T11:31:43.871Z,54.10
2023-04-27T11:34:34.501Z,54.46
2023-04-27T11:37:27.725Z,54.32
2023-04-27T11:40:14.250Z,54.39
2023-04-27T11:43:03.226Z,53.81
2023-04-27T11:45:49.324Z,53.90
2023-04-27T11:48:37.634Z,54.09
2023-04-27T11:51:25.111Z,53.28
2023-04-27T11:54:11.742Z,54.21
2023-04-27T11:57:08.290Z,53.99
2023-04-27T11:59:55.185Z,53.38
2023-04-27T12:02:43.259Z,53.29
2023-04-27T12:05:30.038Z,53.51
2023-04-27T12:08:17.220Z,53.61
2023-04-27T12:11:03.953Z,53.13
2023-04-27T12:13:50.000Z,53.62
2023-04-27T12:16:36.712Z,53.49
2023-04-27T12:19:25.545Z,52.56
2023-04-27T12:22:12.047Z,53.33
2023-04-27T12:24:57.851Z,53.63
2023-04-27T12:27:47.410Z,53.29
2023-04-27T12:30:33.230Z,53.15
2023-04-27T12:33:19.659Z,53.52
2023-04-27T12:36:05.940Z,53.14
2023-04-27T12:38:51.910Z,53.58
2023-04-27T12:41:38.138Z,53.77
2023-04-27T12:44:24.804Z,53.81
2023-04-27T12:47:13.512Z,53.21
2023-04-27T12:50:03.934Z,53.78
2023-04-27T12:52:50.566Z,53.22
2023-04-27T12:55:37.434Z,53.89
2023-04-27T12:58:23.194Z,53.78
2023-04-27T13:01:14.848Z,53.61
2023-04-27T13:04:03.084Z,52.88
2023-04-27T13:06:49.377Z,52.81
2023-04-27T13:09:36.290Z,53.16
2023-04-27T13:12:22.588Z,53.39
2023-04-27T13:15:09.447Z,53.32
2023-04-27T13:17:58.266Z,53.04
2023-04-27T13:20:44.406Z,53.63
2023-04-27T13:23:30.901Z,52.71
2023-04-27T13:26:17.294Z,52.92
2023-04-27T13:29:04.830Z,52.63
2023-04-27T13:31:51.611Z,52.96
2023-04-27T13:34:37.542Z,53.26
2023-04-27T13:37:23.905Z,53.80
2023-04-27T13:40:13.892Z,53.38
2023-04-27T13:43:00.399Z,53.86
2023-04-27T13:45:46.402Z,53.70
2023-04-27T13:48:32.697Z,54.10
2023-04-27T13:51:18.952Z,53.76
2023-04-27T13:54:05.590Z,53.89
2023-04-27T13:56:51.542Z,54.28
2023-04-27T13:59:37.809Z,54.58
2023-04-27T14:02:24.784Z,54.81
2023-04-27T14:05:11.827Z,53.82
2023-04-27T14:07:57.592Z,54.15
2023-04-27T14:10:45.217Z,53.86
2023-04-27T14:13:30.810Z,53.72
2023-04-27T14:16:17.517Z,54.25
2023-04-27T14:19:03.019Z,55.08
2023-04-27T14:21:52.115Z,54.17
2023-04-27T14:24:38.107Z,54.91
2023-04-27T14:27:24.767Z,54.84
2023-04-27T14:30:10.671Z,54.86
2023-04-27T14:32:56.803Z,54.69
2023-04-27T14:35:42.545Z,54.76
2023-04-27T14:38:29.095Z,54.78
2023-04-27T14:41:14.885Z,54.50
2023-04-27T14:44:01.404Z,54.46
2023-04-27T14:46:47.326Z,54.26
2023-04-27T14:49:33.685Z,53.95
2023-04-27T14:52:19.131Z,54.07
2023-04-27T14:55:06.918Z,53.76
2023-04-27T14:57:53.243Z,53.93
2023-04-27T15:00:40.500Z,53.59
2023-04-27T15:03:27.876Z,53.80
2023-04-27T15:06:14.652Z,54.01
2023-04-27T15:09:00.599Z,54.24
2023-04-27T15:11:47.194Z,53.93
2023-04-27T15:14:32.764Z,53.86
2023-04-27T15:17:18.766Z,54.39
2023-04-27T15:20:08.336Z,53.75
2023-04-27T15:22:54.786Z,54.03
2023-04-27T15:25:40.138Z,54.49
2023-04-27T15:28:26.852Z,54.31
2023-04-27T15:31:12.934Z,54.40
2023-04-27T15:33:58.986Z,54.62
2023-04-27T15:36:45.716Z,54.30
2023-04-27T15:39:32.106Z,54.45
2023-04-27T15:42:17.710Z,54.34
2023-04-27T15:45:04.227Z,55.12
2023-04-27T15:47:50.017Z,54.52
2023-04-27T15:50:36.466Z,54.73
2023-04-27T15:53:22.577Z,54.64
2023-04-27T15:56:08.655Z,54.59
2023-04-27T15:58:54.806Z,55.20
2023-04-27T16:01:41.244Z,54.90
2023-04-27T16:04:27.182Z,55.42
2023-04-27T16:07:14.067Z,54.48
2023-04-27T16:10:00.139Z,55.18
2023-04-27T16:12:46.460Z,54.31
2023-04-27T16:15:32.869Z,54.81
2023-04-27T16:18:19.242Z,54.87
2023-04-27T16:21:05.414Z,54.83
2023-04-27T16:23:51.894Z,55.27
2023-04-27T16:26:37.521Z,54.86
2023-04-27T16:29:24.039Z,55.43
2023-04-27T16:32:11.098Z,55.11
2023-04-27T16:34:57.298Z,55.33
2023-04-27T16:37:43.362Z,55.57
2023-04-27T16:40:29.771Z,55.73
2023-04-27T16:43:15.862Z,55.90
2023-04-27T16:46:02.374Z,55.55
2023-04-27T16:48:48.425Z,55.69
2023-04-27T16:51:39.528Z,55.99
2023-04-27T16:54:25.186Z,56.38
2023-04-27T16:57:11.164Z,56.13
2023-04-27T16:59:56.957Z,56.13
2023-04-27T17:02:43.955Z,56.27
2023-04-27T17:05:29.956Z,56.43
2023-04-27T17:08:17.103Z,56.87
2023-04-27T17:11:08.766Z,56.66
2023-04-27T17:13:55.316Z,56.69
2023-04-27T17:16:41.100Z,56.69
2023-04-27T17:19:28.633Z,56.76
2023-04-27T17:22:14.961Z,56.90
2023-04-27T17:25:01.338Z,57.25
2023-04-27T17:27:47.238Z,57.66
2023-04-27T17:30:33.891Z,57.30
2023-04-27T17:33:19.789Z,57.42
2023-04-27T17:36:09.225Z,57.64
2023-04-27T17:38:55.114Z,57.81
2023-04-27T17:41:42.123Z,58.23
2023-04-27T17:44:27.841Z,58.24
2023-04-27T17:47:14.283Z,58.59
2023-04-27T17:50:00.085Z,58.92
2023-04-27T17:52:47.660Z,59.17
2023-04-27T17:55:33.717Z,59.13
2023-04-27T17:58:20.187Z,59.48
2023-04-27T18:01:09.133Z,59.39
2023-04-27T18:03:55.825Z,59.96
2023-04-27T18:06:41.636Z,59.85
2023-04-27T18:09:31.536Z,60.07
2023-04-27T18:12:18.679Z,60.14
2023-04-27T18:15:08.540Z,60.51
2023-04-27T18:17:56.288Z,60.47
2023-04-27T18:20:45.024Z,60.66
2023-04-27T18:23:31.002Z,60.84
2023-04-27T18:26:17.410Z,60.98
2023-04-27T18:29:03.621Z,61.03
2023-04-27T18:31:50.086Z,61.08
2023-04-27T18:34:36.819Z,61.20
2023-04-27T18:37:23.168Z,61.36
2023-04-27T18:40:09.639Z,61.43
2023-04-27T18:42:55.770Z,61.41
2023-04-27T18:45:41.828Z,61.52
2023-04-27T18:48:28.155Z,61.69
2023-04-27T18:51:13.821Z,61.86
2023-04-27T18:53:59.953Z,61.98
2023-04-27T18:56:50.706Z,62.08
2023-04-27T18:59:38.602Z,62.40
2023-04-27T19:02:26.029Z,62.52
2023-04-27T19:05:13.713Z,62.62
2023-04-27T19:07:59.909Z,62.76
2023-04-27T19:10:46.867Z,62.99
2023-04-27T19:13:32.586Z,63.02
2023-04-27T19:16:19.068Z,63.19
2023-04-27T19:19:05.438Z,63.09
2023-04-27T19:21:51.230Z,63.40
2023-04-27T19:24:36.680Z,63.45
2023-04-27T19:27:22.720Z,63.62
2023-04-27T19:30:09.473Z,63.57
2023-04-27T19:32:55.921Z,63.79
2023-04-27T19:35:42.057Z,63.64
2023-04-27T19:38:28.519Z,63.79
2023-04-27T19:41:14.207Z,63.78
2023-04-27T19:44:00.719Z,64.00
2023-04-27T19:46:46.500Z,64.17
2023-04-27T19:49:33.225Z,64.23
2023-04-27T19:52:18.764Z,64.26
2023-04-27T19:55:05.772Z,64.16
2023-04-27T19:57:52.315Z,64.31
2023-04-27T20:00:38.058Z,64.39
2023-04-27T20:03:24.325Z,64.32
2023-04-27T20:06:11.352Z,64.33
2023-04-27T20:08:57.329Z,64.44
2023-04-27T20:11:44.223Z,64.45
2023-04-27T20:14:31.317Z,64.28
2023-04-27T20:17:17.524Z,64.42
2023-04-27T20:20:03.923Z,64.32
2023-04-27T20:22:50.553Z,64.56
2023-04-27T20:25:36.417Z,64.67
2023-04-27T20:28:25.045Z,64.58
2023-04-27T20:31:12.665Z,64.77
2023-04-27T20:33:58.983Z,64.80
2023-04-27T20:36:45.166Z,64.94
2023-04-27T20:39:31.582Z,64.90
2023-04-27T20:42:17.791Z,64.95
2023-04-27T20:45:05.638Z,64.94
2023-04-27T20:47:52.283Z,64.94
2023-04-27T20:50:39.505Z,65.02
2023-04-27T20:53:26.255Z,64.98
2023-04-27T20:56:12.847Z,65.02
2023-04-27T20:58:59.296Z,65.11
2023-04-27T21:01:45.916Z,65.20
2023-04-27T21:04:32.065Z,65.21
2023-04-27T21:07:18.035Z,65.24
2023-04-27T21:10:06.644Z,65.26
2023-04-27T21:12:53.211Z,65.42
2023-04-27T21:15:39.151Z,65.35
2023-04-27T21:18:30.415Z,65.39
2023-04-27T21:21:16.467Z,65.32
2023-04-27T21:24:07.904Z,65.42
2023-04-27T21:27:04.874Z,65.58
2023-04-27T21:29:51.029Z,65.58
2023-04-27T21:32:36.660Z,65.54
2023-04-27T21:35:22.925Z,65.56
2023-04-27T21:38:08.577Z,65.66
2023-04-27T21:40:54.284Z,65.61
2023-04-27T21:43:42.158Z,65.68
2023-04-27T21:46:29.432Z,65.81
2023-04-27T21:49:15.306Z,65.62
2023-04-27T21:52:01.439Z,65.75
2023-04-27T21:54:47.171Z,65.69
2023-04-27T21:57:33.213Z,65.73
2023-04-27T22:00:19.115Z,65.75
2023-04-27T22:03:06.018Z,65.71
2023-04-27T22:05:52.860Z,65.76
2023-04-27T22:08:39.213Z,65.61
2023-04-27T22:11:25.421Z,65.61
2023-04-27T22:14:11.741Z,65.72
2023-04-27T22:16:58.527Z,65.42
2023-04-27T22:19:44.573Z,66.19
2023-04-27T22:22:30.692Z,66.25
2023-04-27T22:25:16.710Z,66.03
2023-04-27T22:28:02.636Z,66.18
2023-04-27T22:30:48.549Z,66.24
2023-04-27T22:33:34.045Z,65.50
2023-04-27T22:36:20.335Z,66.58
2023-04-27T22:39:07.236Z,66.60
2023-04-27T22:41:53.145Z,66.58
2023-04-27T22:44:38.721Z,66.52
2023-04-27T22:47:25.572Z,66.30
2023-04-27T22:50:12.346Z,66.56
2023-04-27T22:52:58.508Z,66.17
2023-04-27T22:55:44.566Z,66.55
2023-04-27T22:58:30.939Z,67.54
2023-04-27T23:01:16.856Z,67.53
2023-04-27T23:04:03.150Z,67.44
2023-04-27T23:06:49.187Z,67.42
2023-04-27T23:09:35.316Z,67.66
2023-04-27T23:12:20.881Z,67.61
2023-04-27T23:15:08.061Z,67.35
2023-04-27T23:17:54.213Z,67.34
2023-04-27T23:20:40.712Z,67.58
2023-04-27T23:23:26.516Z,67.72
2023-04-27T23:26:16.527Z,67.60
2023-04-27T23:29:02.808Z,67.46
2023-04-27T23:31:48.784Z,67.27
2023-04-27T23:34:34.891Z,67.47
2023-04-27T23:37:22.532Z,67.37
2023-04-27T23:40:08.654Z,67.36
2023-04-27T23:42:54.635Z,67.44
2023-04-27T23:45:40.935Z,67.29
2023-04-27T23:48:27.474Z,67.22
2023-04-27T23:51:13.238Z,67.13
2023-04-27T23:53:59.277Z,67.12
2023-04-27T23:56:45.165Z,67.22
2023-04-27T23:59:35.521Z,66.79
